sensor_id;sensor_type;location;lat;lon;timestamp;P1;durP1;ratioP1;P2;durP2;ratioP2
13975;SDS011;7062;49.792;9.946;2022-09-29T00:01:39;3.10;;;2.77;;
13975;SDS011;7062;49.792;9.946;2022-09-29T00:04:04;6.57;;;4.63;;
13975;SDS011;7062;49.792;9.946;2022-09-29T00:06:30;10.67;;;4.77;;
13975;SDS011;7062;49.792;9.946;2022-09-29T00:08:56;6.37;;;4.57;;
13975;SDS011;7062;49.792;9.946;2022-09-29T00:11:22;7.93;;;4.50;;
13975;SDS011;7062;49.792;9.946;2022-09-29T00:13:48;15.10;;;4.93;;
13975;SDS011;7062;49.792;9.946;2022-09-29T00:16:14;6.63;;;4.40;;
13975;SDS011;7062;49.792;9.946;2022-09-29T00:18:40;7.97;;;5.10;;
13975;SDS011;7062;49.792;9.946;2022-09-29T00:21:07;10.67;;;6.40;;
13975;SDS011;7062;49.792;9.946;2022-09-29T00:23:41;8.33;;;5.67;;
13975;SDS011;7062;49.792;9.946;2022-09-29T00:26:08;8.40;;;5.53;;
13975;SDS011;7062;49.792;9.946;2022-09-29T00:28:36;7.50;;;4.67;;
13975;SDS011;7062;49.792;9.946;2022-09-29T00:31:03;6.07;;;4.57;;
13975;SDS011;7062;49.792;9.946;2022-09-29T00:33:30;14.70;;;5.40;;
13975;SDS011;7062;49.792;9.946;2022-09-29T00:36:01;9.47;;;5.87;;
13975;SDS011;7062;49.792;9.946;2022-09-29T00:38:33;6.93;;;4.80;;
13975;SDS011;7062;49.792;9.946;2022-09-29T00:41:00;6.93;;;4.70;;
13975;SDS011;7062;49.792;9.946;2022-09-29T00:46:18;10.73;;;5.33;;
13975;SDS011;7062;49.792;9.946;2022-09-29T00:48:51;6.20;;;5.20;;
13975;SDS011;7062;49.792;9.946;2022-09-29T00:51:20;6.83;;;4.57;;
13975;SDS011;7062;49.792;9.946;2022-09-29T00:53:46;6.37;;;4.27;;
13975;SDS011;7062;49.792;9.946;2022-09-29T00:56:13;6.37;;;4.53;;
13975;SDS011;7062;49.792;9.946;2022-09-29T00:58:44;8.07;;;4.50;;
13975;SDS011;7062;49.792;9.946;2022-09-29T01:01:21;5.57;;;4.40;;
13975;SDS011;7062;49.792;9.946;2022-09-29T01:03:51;11.20;;;4.33;;
13975;SDS011;7062;49.792;9.946;2022-09-29T01:06:20;6.47;;;4.60;;
13975;SDS011;7062;49.792;9.946;2022-09-29T01:08:50;6.43;;;4.60;;
13975;SDS011;7062;49.792;9.946;2022-09-29T01:11:17;20.03;;;10.23;;
13975;SDS011;7062;49.792;9.946;2022-09-29T01:13:45;21.53;;;11.07;;
13975;SDS011;7062;49.792;9.946;2022-09-29T01:16:12;20.57;;;10.03;;
13975;SDS011;7062;49.792;9.946;2022-09-29T01:18:38;15.77;;;6.83;;
13975;SDS011;7062;49.792;9.946;2022-09-29T01:21:10;14.43;;;6.43;;
13975;SDS011;7062;49.792;9.946;2022-09-29T01:31:58;5.23;;;3.60;;
13975;SDS011;7062;49.792;9.946;2022-09-29T01:35:17;4.77;;;4.10;;
13975;SDS011;7062;49.792;9.946;2022-09-29T01:37:56;4.93;;;3.53;;
13975;SDS011;7062;49.792;9.946;2022-09-29T01:42:59;6.97;;;4.67;;
13975;SDS011;7062;49.792;9.946;2022-09-29T01:45:32;5.30;;;4.13;;
13975;SDS011;7062;49.792;9.946;2022-09-29T01:47:59;6.47;;;3.90;;
13975;SDS011;7062;49.792;9.946;2022-09-29T01:50:35;4.47;;;3.37;;
13975;SDS011;7062;49.792;9.946;2022-09-29T01:53:07;4.67;;;3.63;;
13975;SDS011;7062;49.792;9.946;2022-09-29T01:55:44;5.03;;;3.70;;
13975;SDS011;7062;49.792;9.946;2022-09-29T01:58:19;4.37;;;3.50;;
13975;SDS011;7062;49.792;9.946;2022-09-29T02:00:55;5.00;;;3.83;;
13975;SDS011;7062;49.792;9.946;2022-09-29T02:06:02;5.07;;;4.17;;
13975;SDS011;7062;49.792;9.946;2022-09-29T02:08:37;6.67;;;4.10;;
13975;SDS011;7062;49.792;9.946;2022-09-29T02:11:15;4.97;;;3.40;;
13975;SDS011;7062;49.792;9.946;2022-09-29T02:16:14;6.63;;;4.97;;
13975;SDS011;7062;49.792;9.946;2022-09-29T02:18:51;6.03;;;3.60;;
13975;SDS011;7062;49.792;9.946;2022-09-29T02:21:20;7.17;;;4.63;;
13975;SDS011;7062;49.792;9.946;2022-09-29T02:23:46;6.33;;;4.33;;
13975;SDS011;7062;49.792;9.946;2022-09-29T02:26:12;7.70;;;5.03;;
13975;SDS011;7062;49.792;9.946;2022-09-29T02:28:38;4.77;;;3.33;;
13975;SDS011;7062;49.792;9.946;2022-09-29T02:31:05;4.77;;;4.03;;
13975;SDS011;7062;49.792;9.946;2022-09-29T02:33:32;5.37;;;4.30;;
13975;SDS011;7062;49.792;9.946;2022-09-29T02:41:08;4.33;;;3.67;;
13975;SDS011;7062;49.792;9.946;2022-09-29T02:51:41;5.90;;;3.87;;
13975;SDS011;7062;49.792;9.946;2022-09-29T02:57:12;5.13;;;3.93;;
13975;SDS011;7062;49.792;9.946;2022-09-29T03:00:06;4.03;;;3.43;;
13975;SDS011;7062;49.792;9.946;2022-09-29T03:02:35;6.43;;;4.83;;
13975;SDS011;7062;49.792;9.946;2022-09-29T03:05:06;9.43;;;3.87;;
13975;SDS011;7062;49.792;9.946;2022-09-29T03:07:34;5.13;;;3.70;;
13975;SDS011;7062;49.792;9.946;2022-09-29T03:10:01;7.80;;;3.80;;
13975;SDS011;7062;49.792;9.946;2022-09-29T03:12:27;5.20;;;3.37;;
13975;SDS011;7062;49.792;9.946;2022-09-29T03:14:53;7.20;;;4.03;;
13975;SDS011;7062;49.792;9.946;2022-09-29T03:17:18;6.67;;;3.60;;
13975;SDS011;7062;49.792;9.946;2022-09-29T03:19:44;7.20;;;3.57;;
13975;SDS011;7062;49.792;9.946;2022-09-29T03:22:09;7.57;;;4.77;;
13975;SDS011;7062;49.792;9.946;2022-09-29T03:24:35;8.43;;;4.87;;
13975;SDS011;7062;49.792;9.946;2022-09-29T03:27:01;4.60;;;4.07;;
13975;SDS011;7062;49.792;9.946;2022-09-29T03:29:27;3.70;;;3.30;;
13975;SDS011;7062;49.792;9.946;2022-09-29T03:31:52;5.73;;;3.90;;
13975;SDS011;7062;49.792;9.946;2022-09-29T03:34:18;6.30;;;4.50;;
13975;SDS011;7062;49.792;9.946;2022-09-29T03:36:44;5.80;;;3.70;;
13975;SDS011;7062;49.792;9.946;2022-09-29T03:39:09;5.23;;;3.73;;
13975;SDS011;7062;49.792;9.946;2022-09-29T03:41:35;7.13;;;4.03;;
13975;SDS011;7062;49.792;9.946;2022-09-29T03:44:01;7.43;;;5.20;;
13975;SDS011;7062;49.792;9.946;2022-09-29T03:46:26;5.13;;;3.20;;
13975;SDS011;7062;49.792;9.946;2022-09-29T03:48:53;6.57;;;4.23;;
13975;SDS011;7062;49.792;9.946;2022-09-29T03:51:18;4.30;;;3.57;;
13975;SDS011;7062;49.792;9.946;2022-09-29T03:53:44;4.93;;;3.97;;
13975;SDS011;7062;49.792;9.946;2022-09-29T03:56:10;6.83;;;4.50;;
13975;SDS011;7062;49.792;9.946;2022-09-29T03:58:35;6.67;;;4.70;;
13975;SDS011;7062;49.792;9.946;2022-09-29T04:01:01;8.83;;;4.50;;
13975;SDS011;7062;49.792;9.946;2022-09-29T04:03:27;7.13;;;4.63;;
13975;SDS011;7062;49.792;9.946;2022-09-29T04:05:53;7.10;;;4.47;;
13975;SDS011;7062;49.792;9.946;2022-09-29T04:08:18;7.70;;;4.63;;
13975;SDS011;7062;49.792;9.946;2022-09-29T04:10:45;7.67;;;5.00;;
13975;SDS011;7062;49.792;9.946;2022-09-29T04:13:11;5.87;;;4.70;;
13975;SDS011;7062;49.792;9.946;2022-09-29T04:15:37;5.77;;;4.23;;
13975;SDS011;7062;49.792;9.946;2022-09-29T04:18:03;6.40;;;4.40;;
13975;SDS011;7062;49.792;9.946;2022-09-29T04:20:29;8.80;;;5.27;;
13975;SDS011;7062;49.792;9.946;2022-09-29T04:22:56;5.83;;;4.43;;
13975;SDS011;7062;49.792;9.946;2022-09-29T04:25:21;8.13;;;4.27;;
13975;SDS011;7062;49.792;9.946;2022-09-29T04:27:47;6.77;;;4.33;;
13975;SDS011;7062;49.792;9.946;2022-09-29T04:30:12;10.13;;;4.53;;
13975;SDS011;7062;49.792;9.946;2022-09-29T04:32:39;7.03;;;4.73;;
13975;SDS011;7062;49.792;9.946;2022-09-29T04:35:05;5.23;;;4.20;;
13975;SDS011;7062;49.792;9.946;2022-09-29T04:37:31;6.43;;;4.33;;
13975;SDS011;7062;49.792;9.946;2022-09-29T04:39:56;8.43;;;4.10;;
13975;SDS011;7062;49.792;9.946;2022-09-29T04:42:22;6.67;;;5.00;;
13975;SDS011;7062;49.792;9.946;2022-09-29T04:44:48;4.90;;;4.00;;
13975;SDS011;7062;49.792;9.946;2022-09-29T04:47:13;7.03;;;4.80;;
13975;SDS011;7062;49.792;9.946;2022-09-29T04:49:39;5.47;;;4.20;;
13975;SDS011;7062;49.792;9.946;2022-09-29T04:52:05;5.77;;;4.93;;
13975;SDS011;7062;49.792;9.946;2022-09-29T04:54:34;6.97;;;4.83;;
13975;SDS011;7062;49.792;9.946;2022-09-29T04:57:00;5.27;;;4.17;;
13975;SDS011;7062;49.792;9.946;2022-09-29T04:59:26;5.20;;;4.67;;
13975;SDS011;7062;49.792;9.946;2022-09-29T05:01:52;6.13;;;4.57;;
13975;SDS011;7062;49.792;9.946;2022-09-29T05:04:18;5.60;;;4.37;;
13975;SDS011;7062;49.792;9.946;2022-09-29T05:06:44;5.60;;;5.00;;
13975;SDS011;7062;49.792;9.946;2022-09-29T05:09:10;12.30;;;5.10;;
13975;SDS011;7062;49.792;9.946;2022-09-29T05:11:36;7.63;;;4.70;;
13975;SDS011;7062;49.792;9.946;2022-09-29T05:14:02;7.23;;;5.20;;
13975;SDS011;7062;49.792;9.946;2022-09-29T05:16:28;5.80;;;5.20;;
13975;SDS011;7062;49.792;9.946;2022-09-29T05:18:54;6.07;;;4.80;;
13975;SDS011;7062;49.792;9.946;2022-09-29T05:21:19;7.87;;;5.30;;
13975;SDS011;7062;49.792;9.946;2022-09-29T05:23:45;6.23;;;5.13;;
13975;SDS011;7062;49.792;9.946;2022-09-29T05:26:11;7.63;;;5.23;;
13975;SDS011;7062;49.792;9.946;2022-09-29T05:28:38;9.60;;;5.47;;
13975;SDS011;7062;49.792;9.946;2022-09-29T05:31:07;8.27;;;4.90;;
13975;SDS011;7062;49.792;9.946;2022-09-29T05:33:34;9.53;;;5.43;;
13975;SDS011;7062;49.792;9.946;2022-09-29T05:36:02;11.10;;;4.67;;
13975;SDS011;7062;49.792;9.946;2022-09-29T05:38:31;9.80;;;5.33;;
13975;SDS011;7062;49.792;9.946;2022-09-29T05:40:57;6.27;;;4.20;;
13975;SDS011;7062;49.792;9.946;2022-09-29T05:43:27;15.37;;;5.10;;
13975;SDS011;7062;49.792;9.946;2022-09-29T05:45:58;15.63;;;5.70;;
13975;SDS011;7062;49.792;9.946;2022-09-29T05:48:27;9.67;;;5.97;;
13975;SDS011;7062;49.792;9.946;2022-09-29T05:50:56;9.30;;;6.07;;
13975;SDS011;7062;49.792;9.946;2022-09-29T05:53:23;7.20;;;5.40;;
13975;SDS011;7062;49.792;9.946;2022-09-29T05:55:49;11.37;;;6.37;;
13975;SDS011;7062;49.792;9.946;2022-09-29T05:58:15;8.80;;;5.33;;
13975;SDS011;7062;49.792;9.946;2022-09-29T06:00:40;9.60;;;5.63;;
13975;SDS011;7062;49.792;9.946;2022-09-29T06:03:07;15.53;;;6.77;;
13975;SDS011;7062;49.792;9.946;2022-09-29T06:05:32;10.57;;;7.10;;
13975;SDS011;7062;49.792;9.946;2022-09-29T06:08:02;12.27;;;7.53;;
13975;SDS011;7062;49.792;9.946;2022-09-29T06:10:28;7.87;;;6.23;;
13975;SDS011;7062;49.792;9.946;2022-09-29T06:12:53;8.93;;;6.83;;
13975;SDS011;7062;49.792;9.946;2022-09-29T06:15:21;9.13;;;5.97;;
13975;SDS011;7062;49.792;9.946;2022-09-29T06:17:46;7.30;;;5.60;;
13975;SDS011;7062;49.792;9.946;2022-09-29T06:20:18;8.43;;;5.90;;
13975;SDS011;7062;49.792;9.946;2022-09-29T06:22:44;6.93;;;5.00;;
13975;SDS011;7062;49.792;9.946;2022-09-29T06:25:09;7.83;;;5.20;;
13975;SDS011;7062;49.792;9.946;2022-09-29T06:27:35;8.90;;;5.53;;
13975;SDS011;7062;49.792;9.946;2022-09-29T06:30:01;9.33;;;4.83;;
13975;SDS011;7062;49.792;9.946;2022-09-29T06:32:27;9.20;;;5.53;;
13975;SDS011;7062;49.792;9.946;2022-09-29T06:34:52;11.77;;;5.73;;
13975;SDS011;7062;49.792;9.946;2022-09-29T06:37:37;9.97;;;5.20;;
13975;SDS011;7062;49.792;9.946;2022-09-29T06:40:06;10.37;;;6.37;;
13975;SDS011;7062;49.792;9.946;2022-09-29T06:42:35;6.93;;;5.67;;
13975;SDS011;7062;49.792;9.946;2022-09-29T06:45:02;8.70;;;4.80;;
13975;SDS011;7062;49.792;9.946;2022-09-29T06:47:28;8.83;;;6.17;;
13975;SDS011;7062;49.792;9.946;2022-09-29T06:49:53;9.10;;;5.50;;
13975;SDS011;7062;49.792;9.946;2022-09-29T06:52:19;5.90;;;5.30;;
13975;SDS011;7062;49.792;9.946;2022-09-29T06:54:45;10.20;;;6.03;;
13975;SDS011;7062;49.792;9.946;2022-09-29T06:57:11;6.70;;;5.83;;
13975;SDS011;7062;49.792;9.946;2022-09-29T06:59:37;5.33;;;4.80;;
13975;SDS011;7062;49.792;9.946;2022-09-29T07:02:03;6.40;;;5.30;;
13975;SDS011;7062;49.792;9.946;2022-09-29T07:04:29;8.17;;;6.00;;
13975;SDS011;7062;49.792;9.946;2022-09-29T07:06:54;8.80;;;6.43;;
13975;SDS011;7062;49.792;9.946;2022-09-29T07:09:20;9.90;;;5.87;;
13975;SDS011;7062;49.792;9.946;2022-09-29T07:11:50;10.20;;;5.73;;
13975;SDS011;7062;49.792;9.946;2022-09-29T07:14:17;10.47;;;8.67;;
13975;SDS011;7062;49.792;9.946;2022-09-29T07:16:44;11.20;;;7.93;;
13975;SDS011;7062;49.792;9.946;2022-09-29T07:19:13;9.03;;;7.67;;
13975;SDS011;7062;49.792;9.946;2022-09-29T07:21:40;13.50;;;9.27;;
13975;SDS011;7062;49.792;9.946;2022-09-29T07:24:06;11.63;;;9.67;;
13975;SDS011;7062;49.792;9.946;2022-09-29T07:26:32;16.20;;;7.50;;
13975;SDS011;7062;49.792;9.946;2022-09-29T07:28:58;16.17;;;9.10;;
13975;SDS011;7062;49.792;9.946;2022-09-29T07:31:24;10.33;;;9.10;;
13975;SDS011;7062;49.792;9.946;2022-09-29T07:33:49;11.10;;;8.90;;
13975;SDS011;7062;49.792;9.946;2022-09-29T07:36:16;17.93;;;10.37;;
13975;SDS011;7062;49.792;9.946;2022-09-29T07:38:46;11.23;;;9.73;;
13975;SDS011;7062;49.792;9.946;2022-09-29T07:41:13;11.37;;;10.00;;
13975;SDS011;7062;49.792;9.946;2022-09-29T07:43:40;12.23;;;9.20;;
13975;SDS011;7062;49.792;9.946;2022-09-29T07:46:06;11.27;;;9.40;;
13975;SDS011;7062;49.792;9.946;2022-09-29T07:48:32;12.10;;;10.40;;
13975;SDS011;7062;49.792;9.946;2022-09-29T07:51:01;14.30;;;10.17;;
13975;SDS011;7062;49.792;9.946;2022-09-29T07:53:32;10.50;;;9.23;;
13975;SDS011;7062;49.792;9.946;2022-09-29T07:56:03;13.80;;;10.23;;
13975;SDS011;7062;49.792;9.946;2022-09-29T07:58:30;10.47;;;9.33;;
13975;SDS011;7062;49.792;9.946;2022-09-29T08:00:57;14.17;;;10.73;;
13975;SDS011;7062;49.792;9.946;2022-09-29T08:03:22;12.20;;;10.53;;
13975;SDS011;7062;49.792;9.946;2022-09-29T08:05:50;15.43;;;11.53;;
13975;SDS011;7062;49.792;9.946;2022-09-29T08:08:16;15.10;;;12.40;;
13975;SDS011;7062;49.792;9.946;2022-09-29T08:10:42;14.23;;;10.60;;
13975;SDS011;7062;49.792;9.946;2022-09-29T08:13:08;12.03;;;10.53;;
13975;SDS011;7062;49.792;9.946;2022-09-29T08:15:33;13.53;;;11.07;;
13975;SDS011;7062;49.792;9.946;2022-09-29T08:17:59;13.27;;;10.80;;
13975;SDS011;7062;49.792;9.946;2022-09-29T08:20:24;11.67;;;9.17;;
13975;SDS011;7062;49.792;9.946;2022-09-29T08:22:51;28.80;;;10.83;;
13975;SDS011;7062;49.792;9.946;2022-09-29T08:25:17;11.87;;;10.13;;
13975;SDS011;7062;49.792;9.946;2022-09-29T08:27:43;10.77;;;9.50;;
13975;SDS011;7062;49.792;9.946;2022-09-29T08:30:09;13.47;;;9.80;;
13975;SDS011;7062;49.792;9.946;2022-09-29T08:32:36;11.20;;;9.27;;
13975;SDS011;7062;49.792;9.946;2022-09-29T08:35:02;11.87;;;10.07;;
13975;SDS011;7062;49.792;9.946;2022-09-29T08:37:29;14.90;;;9.63;;
13975;SDS011;7062;49.792;9.946;2022-09-29T08:39:55;15.63;;;9.10;;
13975;SDS011;7062;49.792;9.946;2022-09-29T08:45:29;9.80;;;8.83;;
13975;SDS011;7062;49.792;9.946;2022-09-29T08:48:04;7.90;;;7.03;;
13975;SDS011;7062;49.792;9.946;2022-09-29T08:50:40;11.17;;;6.90;;
13975;SDS011;7062;49.792;9.946;2022-09-29T08:53:12;12.30;;;8.20;;
13975;SDS011;7062;49.792;9.946;2022-09-29T08:55:42;9.53;;;6.73;;
13975;SDS011;7062;49.792;9.946;2022-09-29T08:58:23;7.67;;;6.73;;
13975;SDS011;7062;49.792;9.946;2022-09-29T09:03:56;9.67;;;6.43;;
13975;SDS011;7062;49.792;9.946;2022-09-29T09:12:01;5.70;;;5.20;;
13975;SDS011;7062;49.792;9.946;2022-09-29T09:20:33;5.83;;;4.97;;
13975;SDS011;7062;49.792;9.946;2022-09-29T09:23:20;7.23;;;4.73;;
13975;SDS011;7062;49.792;9.946;2022-09-29T09:25:51;8.23;;;5.47;;
13975;SDS011;7062;49.792;9.946;2022-09-29T09:28:28;6.13;;;5.53;;
13975;SDS011;7062;49.792;9.946;2022-09-29T09:36:32;11.67;;;6.00;;
13975;SDS011;7062;49.792;9.946;2022-09-29T09:39:05;6.80;;;4.53;;
13975;SDS011;7062;49.792;9.946;2022-09-29T09:41:46;5.53;;;4.67;;
13975;SDS011;7062;49.792;9.946;2022-09-29T09:44:33;6.50;;;4.63;;
13975;SDS011;7062;49.792;9.946;2022-09-29T09:47:10;6.33;;;5.63;;
13975;SDS011;7062;49.792;9.946;2022-09-29T09:49:57;6.23;;;4.33;;
13975;SDS011;7062;49.792;9.946;2022-09-29T09:52:37;5.80;;;5.20;;
13975;SDS011;7062;49.792;9.946;2022-09-29T09:55:14;7.57;;;4.30;;
13975;SDS011;7062;49.792;9.946;2022-09-29T10:00:14;7.00;;;5.00;;
13975;SDS011;7062;49.792;9.946;2022-09-29T10:02:45;6.37;;;4.70;;
13975;SDS011;7062;49.792;9.946;2022-09-29T10:05:16;4.80;;;4.07;;
13975;SDS011;7062;49.792;9.946;2022-09-29T10:07:44;9.83;;;5.67;;
13975;SDS011;7062;49.792;9.946;2022-09-29T10:10:20;5.40;;;4.10;;
13975;SDS011;7062;49.792;9.946;2022-09-29T10:13:06;4.00;;;3.20;;
13975;SDS011;7062;49.792;9.946;2022-09-29T10:18:39;4.93;;;3.53;;
13975;SDS011;7062;49.792;9.946;2022-09-29T10:21:20;5.90;;;3.27;;
13975;SDS011;7062;49.792;9.946;2022-09-29T10:23:58;3.90;;;3.03;;
13975;SDS011;7062;49.792;9.946;2022-09-29T10:26:25;5.40;;;3.73;;
13975;SDS011;7062;49.792;9.946;2022-09-29T10:29:22;5.10;;;3.60;;
13975;SDS011;7062;49.792;9.946;2022-09-29T10:31:59;4.43;;;3.63;;
13975;SDS011;7062;49.792;9.946;2022-09-29T10:34:41;3.43;;;3.10;;
13975;SDS011;7062;49.792;9.946;2022-09-29T10:37:21;4.97;;;3.33;;
13975;SDS011;7062;49.792;9.946;2022-09-29T10:39:48;4.03;;;3.63;;
13975;SDS011;7062;49.792;9.946;2022-09-29T10:42:25;4.77;;;3.00;;
13975;SDS011;7062;49.792;9.946;2022-09-29T10:47:39;5.10;;;3.43;;
13975;SDS011;7062;49.792;9.946;2022-09-29T10:50:17;4.73;;;2.73;;
13975;SDS011;7062;49.792;9.946;2022-09-29T10:52:53;5.53;;;2.80;;
13975;SDS011;7062;49.792;9.946;2022-09-29T10:55:28;3.37;;;2.70;;
13975;SDS011;7062;49.792;9.946;2022-09-29T10:57:57;4.67;;;2.50;;
13975;SDS011;7062;49.792;9.946;2022-09-29T11:00:34;5.13;;;3.30;;
13975;SDS011;7062;49.792;9.946;2022-09-29T11:03:05;7.47;;;3.03;;
13975;SDS011;7062;49.792;9.946;2022-09-29T11:05:47;5.27;;;3.43;;
13975;SDS011;7062;49.792;9.946;2022-09-29T11:08:18;4.97;;;2.47;;
13975;SDS011;7062;49.792;9.946;2022-09-29T11:10:49;4.43;;;3.13;;
13975;SDS011;7062;49.792;9.946;2022-09-29T11:16:04;3.87;;;3.07;;
13975;SDS011;7062;49.792;9.946;2022-09-29T11:18:40;5.30;;;3.10;;
13975;SDS011;7062;49.792;9.946;2022-09-29T11:32:12;5.63;;;3.80;;
13975;SDS011;7062;49.792;9.946;2022-09-29T11:35:01;5.70;;;3.63;;
13975;SDS011;7062;49.792;9.946;2022-09-29T11:37:54;7.10;;;4.37;;
13975;SDS011;7062;49.792;9.946;2022-09-29T11:40:42;4.97;;;4.27;;
13975;SDS011;7062;49.792;9.946;2022-09-29T11:48:41;4.17;;;3.20;;
13975;SDS011;7062;49.792;9.946;2022-09-29T11:51:32;4.60;;;2.73;;
13975;SDS011;7062;49.792;9.946;2022-09-29T11:54:05;7.33;;;2.97;;
13975;SDS011;7062;49.792;9.946;2022-09-29T11:56:45;5.37;;;2.93;;
13975;SDS011;7062;49.792;9.946;2022-09-29T12:15:51;3.37;;;1.87;;
13975;SDS011;7062;49.792;9.946;2022-09-29T12:21:14;3.10;;;2.20;;
13975;SDS011;7062;49.792;9.946;2022-09-29T12:23:47;3.40;;;2.00;;
13975;SDS011;7062;49.792;9.946;2022-09-29T12:26:15;2.90;;;2.23;;
13975;SDS011;7062;49.792;9.946;2022-09-29T12:28:47;6.37;;;2.77;;
13975;SDS011;7062;49.792;9.946;2022-09-29T12:31:27;3.70;;;2.27;;
13975;SDS011;7062;49.792;9.946;2022-09-29T12:33:59;3.43;;;2.07;;
13975;SDS011;7062;49.792;9.946;2022-09-29T12:50:12;5.97;;;1.60;;
13975;SDS011;7062;49.792;9.946;2022-09-29T12:53:08;3.30;;;1.40;;
13975;SDS011;7062;49.792;9.946;2022-09-29T12:58:53;4.30;;;1.30;;
13975;SDS011;7062;49.792;9.946;2022-09-29T13:01:24;2.63;;;1.37;;
13975;SDS011;7062;49.792;9.946;2022-09-29T13:09:03;3.40;;;1.80;;
13975;SDS011;7062;49.792;9.946;2022-09-29T13:12:01;4.10;;;1.73;;
13975;SDS011;7062;49.792;9.946;2022-09-29T13:28:26;2.67;;;1.53;;
13975;SDS011;7062;49.792;9.946;2022-09-29T13:31:00;4.60;;;1.60;;
13975;SDS011;7062;49.792;9.946;2022-09-29T13:33:29;3.80;;;1.33;;
13975;SDS011;7062;49.792;9.946;2022-09-29T13:35:56;2.50;;;1.13;;
13975;SDS011;7062;49.792;9.946;2022-09-29T13:38:23;7.50;;;1.80;;
13975;SDS011;7062;49.792;9.946;2022-09-29T13:41:09;4.53;;;2.20;;
13975;SDS011;7062;49.792;9.946;2022-09-29T13:43:36;5.83;;;1.60;;
13975;SDS011;7062;49.792;9.946;2022-09-29T13:54:21;2.30;;;1.37;;
13975;SDS011;7062;49.792;9.946;2022-09-29T13:59:22;2.90;;;1.10;;
13975;SDS011;7062;49.792;9.946;2022-09-29T14:01:49;4.87;;;1.97;;
13975;SDS011;7062;49.792;9.946;2022-09-29T14:04:50;4.77;;;2.43;;
13975;SDS011;7062;49.792;9.946;2022-09-29T14:07:33;2.20;;;1.47;;
13975;SDS011;7062;49.792;9.946;2022-09-29T14:10:30;2.53;;;1.10;;
13975;SDS011;7062;49.792;9.946;2022-09-29T14:15:45;4.10;;;1.20;;
13975;SDS011;7062;49.792;9.946;2022-09-29T14:21:07;2.60;;;1.00;;
13975;SDS011;7062;49.792;9.946;2022-09-29T14:29:17;2.67;;;1.30;;
13975;SDS011;7062;49.792;9.946;2022-09-29T14:31:44;2.00;;;1.10;;
13975;SDS011;7062;49.792;9.946;2022-09-29T14:34:14;2.97;;;1.47;;
13975;SDS011;7062;49.792;9.946;2022-09-29T14:36:41;3.67;;;1.40;;
13975;SDS011;7062;49.792;9.946;2022-09-29T14:39:11;3.40;;;1.20;;
13975;SDS011;7062;49.792;9.946;2022-09-29T14:41:40;3.87;;;1.27;;
13975;SDS011;7062;49.792;9.946;2022-09-29T14:44:26;4.03;;;1.30;;
13975;SDS011;7062;49.792;9.946;2022-09-29T14:50:07;2.03;;;1.20;;
13975;SDS011;7062;49.792;9.946;2022-09-29T14:53:03;2.77;;;1.10;;
13975;SDS011;7062;49.792;9.946;2022-09-29T15:01:22;4.73;;;1.07;;
13975;SDS011;7062;49.792;9.946;2022-09-29T15:03:57;1.80;;;0.90;;
13975;SDS011;7062;49.792;9.946;2022-09-29T15:06:43;1.00;;;0.80;;
13975;SDS011;7062;49.792;9.946;2022-09-29T15:11:55;1.20;;;0.73;;
13975;SDS011;7062;49.792;9.946;2022-09-29T15:14:30;1.13;;;0.70;;
13975;SDS011;7062;49.792;9.946;2022-09-29T15:27:44;1.33;;;0.87;;
13975;SDS011;7062;49.792;9.946;2022-09-29T15:30:19;2.23;;;0.67;;
13975;SDS011;7062;49.792;9.946;2022-09-29T15:32:46;0.73;;;0.60;;
13975;SDS011;7062;49.792;9.946;2022-09-29T15:35:20;1.00;;;0.53;;
13975;SDS011;7062;49.792;9.946;2022-09-29T15:40:14;1.10;;;0.70;;
13975;SDS011;7062;49.792;9.946;2022-09-29T15:42:45;2.10;;;0.77;;
13975;SDS011;7062;49.792;9.946;2022-09-29T15:45:14;0.90;;;0.67;;
13975;SDS011;7062;49.792;9.946;2022-09-29T15:47:43;1.97;;;0.63;;
13975;SDS011;7062;49.792;9.946;2022-09-29T15:50:16;0.70;;;0.70;;
13975;SDS011;7062;49.792;9.946;2022-09-29T15:52:46;3.33;;;0.80;;
13975;SDS011;7062;49.792;9.946;2022-09-29T15:55:15;3.17;;;1.07;;
13975;SDS011;7062;49.792;9.946;2022-09-29T15:57:46;1.67;;;0.87;;
13975;SDS011;7062;49.792;9.946;2022-09-29T16:05:31;1.53;;;1.03;;
13975;SDS011;7062;49.792;9.946;2022-09-29T16:08:05;1.40;;;0.70;;
13975;SDS011;7062;49.792;9.946;2022-09-29T16:13:24;2.70;;;1.13;;
13975;SDS011;7062;49.792;9.946;2022-09-29T16:15:56;2.23;;;1.27;;
13975;SDS011;7062;49.792;9.946;2022-09-29T16:18:27;2.10;;;0.90;;
13975;SDS011;7062;49.792;9.946;2022-09-29T16:20:57;2.83;;;1.87;;
13975;SDS011;7062;49.792;9.946;2022-09-29T16:23:41;3.47;;;1.30;;
13975;SDS011;7062;49.792;9.946;2022-09-29T16:26:12;4.13;;;1.30;;
13975;SDS011;7062;49.792;9.946;2022-09-29T16:28:57;4.03;;;2.53;;
13975;SDS011;7062;49.792;9.946;2022-09-29T16:31:37;5.07;;;0.90;;
13975;SDS011;7062;49.792;9.946;2022-09-29T16:34:48;3.40;;;1.20;;
13975;SDS011;7062;49.792;9.946;2022-09-29T16:39:31;4.23;;;2.00;;
13975;SDS011;7062;49.792;9.946;2022-09-29T16:42:04;1.67;;;1.17;;
13975;SDS011;7062;49.792;9.946;2022-09-29T16:44:32;5.30;;;2.37;;
13975;SDS011;7062;49.792;9.946;2022-09-29T16:49:54;3.83;;;1.70;;
13975;SDS011;7062;49.792;9.946;2022-09-29T16:52:23;4.60;;;1.30;;
13975;SDS011;7062;49.792;9.946;2022-09-29T16:54:51;3.13;;;1.47;;
13975;SDS011;7062;49.792;9.946;2022-09-29T16:57:28;3.40;;;1.70;;
13975;SDS011;7062;49.792;9.946;2022-09-29T16:59:56;2.17;;;1.70;;
13975;SDS011;7062;49.792;9.946;2022-09-29T17:02:23;3.17;;;2.03;;
13975;SDS011;7062;49.792;9.946;2022-09-29T17:04:53;4.47;;;2.30;;
13975;SDS011;7062;49.792;9.946;2022-09-29T17:07:21;2.83;;;1.83;;
13975;SDS011;7062;49.792;9.946;2022-09-29T17:09:57;3.13;;;2.00;;
13975;SDS011;7062;49.792;9.946;2022-09-29T17:12:25;4.47;;;3.30;;
13975;SDS011;7062;49.792;9.946;2022-09-29T17:14:52;4.67;;;3.03;;
13975;SDS011;7062;49.792;9.946;2022-09-29T17:17:24;6.70;;;4.07;;
13975;SDS011;7062;49.792;9.946;2022-09-29T17:19:52;5.23;;;3.30;;
13975;SDS011;7062;49.792;9.946;2022-09-29T17:24:54;6.60;;;3.37;;
13975;SDS011;7062;49.792;9.946;2022-09-29T17:27:19;4.97;;;3.10;;
13975;SDS011;7062;49.792;9.946;2022-09-29T17:30:05;6.70;;;2.77;;
13975;SDS011;7062;49.792;9.946;2022-09-29T17:32:31;8.40;;;3.33;;
13975;SDS011;7062;49.792;9.946;2022-09-29T17:34:56;7.40;;;3.50;;
13975;SDS011;7062;49.792;9.946;2022-09-29T17:37:22;7.13;;;4.33;;
13975;SDS011;7062;49.792;9.946;2022-09-29T17:39:48;6.30;;;3.67;;
13975;SDS011;7062;49.792;9.946;2022-09-29T17:42:14;7.40;;;3.70;;
13975;SDS011;7062;49.792;9.946;2022-09-29T17:44:40;6.23;;;4.97;;
13975;SDS011;7062;49.792;9.946;2022-09-29T17:47:13;8.00;;;5.63;;
13975;SDS011;7062;49.792;9.946;2022-09-29T17:49:43;10.80;;;8.33;;
13975;SDS011;7062;49.792;9.946;2022-09-29T17:52:13;10.73;;;7.57;;
13975;SDS011;7062;49.792;9.946;2022-09-29T17:54:40;8.93;;;7.70;;
13975;SDS011;7062;49.792;9.946;2022-09-29T17:57:06;9.33;;;7.13;;
13975;SDS011;7062;49.792;9.946;2022-09-29T17:59:43;8.90;;;7.37;;
13975;SDS011;7062;49.792;9.946;2022-09-29T18:02:10;9.50;;;7.00;;
13975;SDS011;7062;49.792;9.946;2022-09-29T18:04:39;7.63;;;6.83;;
13975;SDS011;7062;49.792;9.946;2022-09-29T18:07:10;10.50;;;7.17;;
13975;SDS011;7062;49.792;9.946;2022-09-29T18:09:36;12.13;;;7.63;;
13975;SDS011;7062;49.792;9.946;2022-09-29T18:12:04;8.53;;;7.67;;
13975;SDS011;7062;49.792;9.946;2022-09-29T18:14:29;8.10;;;7.07;;
13975;SDS011;7062;49.792;9.946;2022-09-29T18:16:59;8.10;;;6.70;;
13975;SDS011;7062;49.792;9.946;2022-09-29T18:19:28;8.23;;;6.53;;
13975;SDS011;7062;49.792;9.946;2022-09-29T18:21:54;7.87;;;6.37;;
13975;SDS011;7062;49.792;9.946;2022-09-29T18:24:21;10.13;;;7.57;;
13975;SDS011;7062;49.792;9.946;2022-09-29T18:26:47;8.67;;;7.07;;
13975;SDS011;7062;49.792;9.946;2022-09-29T18:29:15;9.67;;;8.50;;
13975;SDS011;7062;49.792;9.946;2022-09-29T18:31:43;12.03;;;9.10;;
13975;SDS011;7062;49.792;9.946;2022-09-29T18:34:16;11.27;;;9.10;;
13975;SDS011;7062;49.792;9.946;2022-09-29T18:36:43;12.17;;;9.23;;
13975;SDS011;7062;49.792;9.946;2022-09-29T18:39:12;14.57;;;10.03;;
13975;SDS011;7062;49.792;9.946;2022-09-29T18:41:37;12.47;;;10.03;;